createdAt,value
2022-12-09T10:46:27.495Z,4.23
2022-12-09T10:49:04.076Z,5.97
2022-12-09T10:51:41.794Z,4.63
2022-12-09T10:54:21.973Z,4.67
2022-12-09T10:57:28.275Z,3.67
2022-12-09T11:00:02.866Z,3.93
2022-12-09T11:02:32.863Z,4.47
2022-12-09T11:05:39.465Z,4.07
2022-12-09T11:08:08.069Z,4.53
2022-12-09T11:10:47.530Z,3.87
2022-12-09T11:13:17.522Z,3.40
2022-12-09T11:15:46.158Z,3.30
2022-12-09T11:18:37.401Z,3.63
2022-12-09T11:21:06.842Z,3.03
2022-12-09T11:23:37.099Z,3.03
2022-12-09T11:26:06.879Z,2.80
2022-12-09T11:28:38.510Z,3.60
2022-12-09T11:34:05.688Z,3.40
2022-12-09T11:36:36.984Z,3.17
2022-12-09T11:39:18.737Z,2.60
2022-12-09T11:42:14.611Z,3.47
2022-12-09T11:44:49.189Z,2.90
2022-12-09T11:47:33.612Z,2.73
2022-12-09T11:50:33.288Z,3.00
2022-12-09T11:53:13.302Z,2.50
2022-12-09T11:55:44.642Z,2.07
2022-12-09T11:58:12.896Z,2.80
2022-12-09T12:00:44.573Z,2.10
2022-12-09T12:03:27.771Z,1.83
2022-12-09T12:05:56.058Z,3.00
2022-12-09T12:08:47.619Z,4.57
2022-12-09T12:11:23.881Z,4.30
2022-12-09T12:13:55.651Z,2.97
2022-12-09T12:16:39.955Z,2.57
2022-12-09T12:19:09.240Z,2.67
2022-12-09T12:21:44.093Z,2.37
2022-12-09T12:24:24.864Z,2.80
2022-12-09T12:26:59.262Z,3.60
2022-12-09T12:29:26.661Z,3.27
2022-12-09T12:32:01.039Z,3.40
2022-12-09T12:34:39.408Z,2.87
2022-12-09T12:37:19.619Z,2.67
2022-12-09T12:39:55.857Z,2.90
2022-12-09T12:42:42.829Z,2.00
2022-12-09T12:45:31.976Z,3.27
2022-12-09T12:48:05.138Z,3.27
2022-12-09T12:50:56.931Z,2.57
2022-12-09T12:53:53.880Z,2.33
2022-12-09T12:56:29.363Z,2.20
2022-12-09T12:59:05.967Z,2.83
2022-12-09T13:01:52.853Z,2.40
2022-12-09T13:04:39.777Z,2.33
2022-12-09T13:07:23.993Z,1.80
2022-12-09T13:09:57.233Z,2.20
2022-12-09T13:12:48.813Z,2.53
2022-12-09T13:15:25.351Z,2.77
2022-12-09T13:18:09.074Z,2.17
2022-12-09T13:20:44.329Z,2.30
2022-12-09T13:23:41.322Z,1.93
2022-12-09T13:26:18.945Z,2.27
2022-12-09T13:29:08.573Z,2.20
2022-12-09T13:31:37.226Z,3.23
2022-12-09T13:34:04.433Z,2.07
2022-12-09T13:36:46.781Z,2.70
2022-12-09T13:39:32.571Z,2.43
2022-12-09T13:42:18.309Z,1.87
2022-12-09T13:44:46.916Z,3.00
2022-12-09T13:47:28.874Z,2.23
2022-12-09T13:50:06.548Z,2.60
2022-12-09T13:52:53.076Z,1.87
2022-12-09T13:55:40.146Z,3.97
2022-12-09T13:58:10.500Z,3.03
2022-12-09T14:00:37.801Z,2.97
2022-12-09T14:03:43.831Z,2.47
2022-12-09T14:06:27.358Z,3.80
2022-12-09T14:08:58.830Z,2.57
2022-12-09T14:11:42.966Z,2.93
2022-12-09T14:14:32.734Z,2.40
2022-12-09T14:17:00.655Z,2.67
2022-12-09T14:19:29.638Z,3.30
2022-12-09T14:22:16.752Z,2.27
2022-12-09T14:24:50.008Z,1.83
2022-12-09T14:27:33.880Z,2.07
2022-12-09T14:30:20.379Z,1.83
2022-12-09T14:33:06.260Z,2.50
2022-12-09T14:35:47.098Z,2.17
2022-12-09T14:38:33.088Z,2.33
2022-12-09T14:41:17.711Z,2.30
2022-12-09T14:43:54.936Z,2.50
2022-12-09T14:46:31.983Z,2.70
2022-12-09T14:49:14.453Z,2.23
2022-12-09T14:51:44.701Z,2.17
2022-12-09T14:54:26.083Z,3.00
2022-12-09T14:56:57.726Z,3.23
2022-12-09T14:59:29.896Z,2.53
2022-12-09T15:01:59.120Z,4.17
2022-12-09T15:04:27.087Z,2.80
2022-12-09T15:07:10.283Z,2.70
2022-12-09T15:09:48.378Z,2.70
2022-12-09T15:12:17.702Z,2.93
2022-12-09T15:14:56.265Z,2.33
2022-12-09T15:17:37.069Z,6.63
2022-12-09T15:20:27.417Z,3.20
2022-12-09T15:23:02.568Z,2.40
2022-12-09T15:25:32.443Z,2.67
2022-12-09T15:28:06.964Z,3.10
2022-12-09T15:30:35.145Z,3.67
2022-12-09T15:33:02.692Z,10.10
2022-12-09T15:35:43.265Z,2.80
2022-12-09T15:38:10.403Z,2.20
2022-12-09T15:40:37.872Z,4.10
2022-12-09T15:43:06.478Z,4.13
2022-12-09T15:45:40.162Z,3.43
2022-12-09T15:48:13.478Z,3.00
2022-12-09T15:50:55.385Z,2.33
2022-12-09T15:53:53.755Z,2.27
2022-12-09T15:56:26.198Z,2.80
2022-12-09T15:58:55.359Z,2.30
2022-12-09T16:01:25.423Z,2.67
2022-12-09T16:04:03.914Z,2.40
2022-12-09T16:06:39.272Z,2.80
2022-12-09T16:09:16.387Z,1.90
2022-12-09T16:12:04.576Z,3.40
2022-12-09T16:14:42.053Z,3.97
2022-12-09T16:17:18.882Z,3.00
2022-12-09T16:19:52.203Z,2.87
2022-12-09T16:22:23.193Z,2.30
2022-12-09T16:25:14.322Z,2.50
2022-12-09T16:27:48.954Z,2.40
2022-12-09T16:30:19.199Z,2.80
2022-12-09T16:32:47.384Z,3.30
2022-12-09T16:35:17.735Z,2.80
2022-12-09T16:38:11.760Z,2.23
2022-12-09T16:40:47.289Z,2.77
2022-12-09T16:43:21.246Z,2.90
2022-12-09T16:45:58.770Z,2.17
2022-12-09T16:48:32.367Z,1.97
2022-12-09T16:51:15.046Z,2.00
2022-12-09T16:54:15.217Z,1.80
2022-12-09T16:56:47.815Z,1.97
2022-12-09T16:59:22.258Z,2.80
2022-12-09T17:06:01.431Z,1.83
2022-12-09T17:08:42.410Z,2.63
2022-12-09T17:11:09.820Z,2.00
2022-12-09T17:13:38.818Z,2.73
2022-12-09T17:16:09.948Z,1.80
2022-12-09T17:19:19.459Z,2.50
2022-12-09T17:21:49.095Z,2.53
2022-12-09T17:24:19.881Z,3.00
2022-12-09T17:27:12.090Z,3.07
2022-12-09T17:29:39.331Z,1.63
2022-12-09T17:32:06.824Z,3.27
2022-12-09T17:34:34.377Z,2.73
2022-12-09T17:37:01.510Z,2.93
2022-12-09T17:39:28.874Z,2.53
2022-12-09T17:41:56.463Z,3.37
2022-12-09T17:44:23.575Z,2.67
2022-12-09T17:46:50.983Z,3.80
2022-12-09T17:49:19.070Z,6.20
2022-12-09T17:51:46.501Z,15.57
2022-12-09T17:54:13.771Z,7.63
2022-12-09T17:56:41.032Z,4.60
2022-12-09T17:59:10.216Z,4.90
2022-12-09T18:01:37.591Z,4.07
2022-12-09T18:04:13.203Z,3.97
2022-12-09T18:06:44.043Z,3.30
2022-12-09T18:09:13.124Z,3.10
2022-12-09T18:11:40.604Z,5.03
2022-12-09T18:14:07.779Z,3.90
2022-12-09T18:16:34.978Z,3.00
2022-12-09T18:19:03.106Z,4.47
2022-12-09T18:21:30.265Z,3.03
2022-12-09T18:23:58.517Z,3.20
2022-12-09T18:26:30.216Z,3.20
2022-12-09T18:28:59.461Z,3.43
2022-12-09T18:31:28.552Z,6.20
2022-12-09T18:33:56.913Z,5.43
2022-12-09T18:39:53.526Z,4.73
2022-12-09T18:42:21.711Z,5.10
2022-12-09T18:44:51.958Z,6.50
2022-12-09T18:47:19.273Z,7.10
2022-12-09T18:49:46.591Z,8.80
2022-12-09T18:52:13.792Z,7.07
2022-12-09T18:54:42.777Z,8.00
2022-12-09T18:57:10.888Z,6.53
2022-12-09T18:59:38.283Z,8.70
2022-12-09T19:02:05.603Z,8.90
2022-12-09T19:04:35.102Z,7.73
2022-12-09T19:07:02.712Z,6.57
2022-12-09T19:09:32.433Z,6.17
2022-12-09T19:12:16.418Z,8.27
2022-12-09T19:14:44.044Z,4.80
2022-12-09T19:17:12.205Z,4.87
2022-12-09T19:19:40.622Z,4.97
2022-12-09T19:22:09.072Z,3.73
2022-12-09T19:24:42.692Z,4.00
2022-12-09T19:27:10.642Z,3.90
2022-12-09T19:29:39.892Z,6.03
2022-12-09T19:32:23.680Z,6.13
2022-12-09T19:34:54.782Z,6.63
2022-12-09T19:37:21.943Z,5.60
2022-12-09T19:39:59.884Z,4.97
2022-12-09T19:42:30.372Z,6.60
2022-12-09T19:58:50.203Z,4.90
2022-12-09T20:01:21.624Z,4.30
2022-12-09T20:03:50.366Z,2.70
2022-12-09T20:06:20.704Z,2.97
2022-12-09T20:08:50.933Z,2.30
2022-12-09T20:11:20.084Z,3.60
2022-12-09T20:13:47.351Z,5.63
2022-12-09T20:16:18.613Z,2.93
2022-12-09T20:18:49.021Z,5.40
2022-12-09T20:21:17.056Z,4.17
2022-12-09T20:23:44.411Z,3.00
2022-12-09T20:26:14.346Z,3.63
2022-12-09T20:28:42.108Z,3.37
2022-12-09T20:31:16.749Z,2.93
2022-12-09T20:33:45.673Z,2.87
2022-12-09T20:36:20.395Z,2.43
2022-12-09T20:38:56.822Z,2.77
2022-12-09T20:41:26.405Z,1.87
2022-12-09T20:43:56.993Z,2.33
2022-12-09T20:46:25.523Z,2.10
2022-12-09T20:48:55.097Z,1.80
2022-12-09T20:51:33.882Z,2.00
2022-12-09T20:54:02.263Z,1.90
2022-12-09T20:56:29.656Z,2.00
2022-12-09T20:58:57.376Z,2.57
2022-12-09T21:01:41.999Z,2.23
2022-12-09T21:14:33.158Z,2.77
